Terminal Aerodrome Forecast
Issued by NWS Sioux Falls, SD

Home | Current Version | Previous Version | Text Only | Print | Product List | Glossary On
Versions: 1 2 3 4 5 6 7 8 9 10 11 12
000
FTUS43 KFSD 081100
TAFHON
TAF
KHON 081120Z 0812/0912 31008KT P6SM SKC
     FM081500 33014G22KT P6SM FEW030
     FM081800 33017G26KT P6SM SCT045
     FM090030 VRB04KT P6SM SKC=

USA.gov is the U.S. government's official web portal to all federal, state and local government web resources and services.